Aviation Digital Data Service (ADDS)

Output produced by METARs form (2236 UTC 19 April 2014)
found at http://aviationweather.gov/adds/metars/
 
KCON 191723Z 1918/2018 32010G20KT P6SM BKN050 
     FM200000 33007KT P6SM SKC